createdAt,value
2018-05-26T00:00:22.469Z,92372.39
2018-05-26T00:02:54.750Z,92377.35
2018-05-26T00:05:27.036Z,92376.22
2018-05-26T00:07:59.545Z,92374.95
2018-05-26T00:10:31.815Z,92380.33
2018-05-26T00:13:04.324Z,92378.78
2018-05-26T00:15:36.748Z,92372.88
2018-05-26T00:18:09.104Z,92366.73
2018-05-26T00:20:41.386Z,92369.63
2018-05-26T00:23:14.040Z,92379.83
2018-05-26T00:25:46.339Z,92376.44
2018-05-26T00:28:18.848Z,92378.30
2018-05-26T00:30:51.099Z,92373.21
2018-05-26T00:33:23.572Z,92370.19
2018-05-26T00:35:56.009Z,92365.00
2018-05-26T00:38:29.489Z,92370.16
2018-05-26T00:41:01.901Z,92363.49
2018-05-26T00:43:34.273Z,92368.02
2018-05-26T00:46:06.465Z,92364.88
2018-05-26T00:48:38.928Z,92370.48
2018-05-26T00:51:11.327Z,92371.16
2018-05-26T00:53:43.797Z,92367.78
2018-05-26T00:56:16.284Z,92370.48
2018-05-26T00:58:48.568Z,92374.86
2018-05-26T01:01:20.999Z,92388.90
2018-05-26T01:03:53.386Z,92396.09
2018-05-26T01:06:25.636Z,92383.81
2018-05-26T01:08:58.598Z,92389.14
2018-05-26T01:11:31.021Z,92392.00
2018-05-26T01:14:03.438Z,92388.14
2018-05-26T01:16:35.799Z,92390.64
2018-05-26T01:19:08.321Z,92384.53
2018-05-26T01:21:40.797Z,92392.49
2018-05-26T01:24:13.549Z,92392.77
2018-05-26T01:26:45.923Z,92392.77
2018-05-26T01:29:18.183Z,92394.62
2018-05-26T01:31:50.478Z,92399.88
2018-05-26T01:34:22.735Z,92398.03
2018-05-26T01:36:55.160Z,92394.83
2018-05-26T01:39:27.892Z,92401.57
2018-05-26T01:42:00.328Z,92402.78
2018-05-26T01:44:32.803Z,92405.62
2018-05-26T01:47:05.158Z,92401.08
2018-05-26T01:49:37.557Z,92409.98
2018-05-26T01:52:09.938Z,92402.22
2018-05-26T01:54:42.298Z,92404.05
2018-05-26T01:57:14.762Z,92402.37
2018-05-26T01:59:47.155Z,92407.64
2018-05-26T02:02:19.553Z,92402.05
2018-05-26T02:04:52.024Z,92406.80
2018-05-26T02:07:24.314Z,92415.95
2018-05-26T02:09:56.661Z,92412.07
2018-05-26T02:12:28.966Z,92408.95
2018-05-26T02:15:01.311Z,92414.48
2018-05-26T02:17:33.537Z,92410.06
2018-05-26T02:20:05.873Z,92420.23
2018-05-26T02:22:38.153Z,92417.84
2018-05-26T02:25:10.750Z,92419.57
2018-05-26T02:27:43.232Z,92423.56
2018-05-26T02:30:15.637Z,92417.81
2018-05-26T02:32:47.936Z,92422.94
2018-05-26T02:35:20.276Z,92415.70
2018-05-26T02:37:52.563Z,92417.83
2018-05-26T02:40:25.081Z,92422.68
2018-05-26T02:42:57.523Z,92422.00
2018-05-26T02:45:29.848Z,92426.02
2018-05-26T02:48:02.135Z,92435.52
2018-05-26T02:50:34.509Z,92427.13
2018-05-26T02:53:06.951Z,92439.83
2018-05-26T02:55:39.392Z,92432.37
2018-05-26T02:58:11.781Z,92440.05
2018-05-26T03:00:44.089Z,92433.45
2018-05-26T03:03:16.518Z,92443.31
2018-05-26T03:05:54.967Z,92440.56
2018-05-26T03:08:33.505Z,92450.27
2018-05-26T03:11:12.024Z,92442.50
2018-05-26T03:13:50.578Z,92453.27
2018-05-26T03:16:28.964Z,92445.87
2018-05-26T03:19:01.400Z,92451.09
2018-05-26T03:21:33.766Z,92463.09
2018-05-26T03:24:06.089Z,92456.22
2018-05-26T03:26:38.519Z,92456.56
2018-05-26T03:29:10.873Z,92454.81
2018-05-26T03:31:43.153Z,92453.48
2018-05-26T03:34:15.539Z,92459.73
2018-05-26T03:36:47.968Z,92457.64
2018-05-26T03:39:20.255Z,92462.55
2018-05-26T03:41:52.684Z,92465.97
2018-05-26T03:44:25.017Z,92468.83
2018-05-26T03:46:57.538Z,92471.37
2018-05-26T03:49:29.825Z,92472.67
2018-05-26T03:52:02.101Z,92467.12
2018-05-26T03:54:46.527Z,92469.24
2018-05-26T03:57:31.180Z,92464.41
2018-05-26T04:00:11.316Z,92459.71
2018-05-26T04:02:43.603Z,92468.07
2018-05-26T04:05:16.013Z,92471.53
2018-05-26T04:07:48.277Z,92465.27
2018-05-26T04:10:20.459Z,92467.78
2018-05-26T04:12:52.935Z,92467.67
2018-05-26T04:15:25.159Z,92466.02
2018-05-26T04:17:57.535Z,92473.25
2018-05-26T04:20:29.794Z,92474.03
2018-05-26T04:23:02.153Z,92484.26
2018-05-26T04:25:34.427Z,92482.16
2018-05-26T04:28:06.986Z,92489.53
2018-05-26T04:30:39.452Z,92496.16
2018-05-26T04:33:11.812Z,92499.19
2018-05-26T04:35:44.025Z,92501.23
2018-05-26T04:38:16.288Z,92497.69
2018-05-26T04:40:48.540Z,92499.64
2018-05-26T04:43:20.966Z,92501.73
2018-05-26T04:45:53.445Z,92504.39
2018-05-26T04:48:25.688Z,92503.78
2018-05-26T04:50:57.946Z,92497.31
2018-05-26T04:53:30.327Z,92506.45
2018-05-26T04:56:02.819Z,92503.83
2018-05-26T04:58:35.287Z,92500.25
2018-05-26T05:01:07.694Z,92495.27
2018-05-26T05:03:40.125Z,92501.26
2018-05-26T05:06:12.466Z,92501.37
2018-05-26T05:08:44.811Z,92498.12
2018-05-26T05:11:17.260Z,92495.72
2018-05-26T05:13:49.766Z,92503.89
2018-05-26T05:16:22.195Z,92507.20
2018-05-26T05:18:54.522Z,92501.45
2018-05-26T05:21:26.959Z,92509.84
2018-05-26T05:23:59.274Z,92506.44
2018-05-26T05:26:31.630Z,92505.57
2018-05-26T05:29:04.236Z,92504.06
2018-05-26T05:31:36.590Z,92510.08
2018-05-26T05:34:08.970Z,92512.27
2018-05-26T05:36:41.228Z,92512.62
2018-05-26T05:39:13.540Z,92512.88
2018-05-26T05:41:47.588Z,92521.83
2018-05-26T05:44:20.352Z,92522.98
2018-05-26T05:46:52.538Z,92516.55
2018-05-26T05:49:25.279Z,92522.41
2018-05-26T05:51:58.469Z,92520.14
2018-05-26T05:54:31.057Z,92515.80
2018-05-26T05:57:03.636Z,92521.98
2018-05-26T05:59:35.971Z,92532.17
2018-05-26T06:02:08.400Z,92536.86
2018-05-26T06:04:40.876Z,92526.67
2018-05-26T06:07:13.773Z,92530.96
2018-05-26T06:09:46.213Z,92532.02
2018-05-26T06:12:18.597Z,92530.63
2018-05-26T06:14:50.992Z,92524.77
2018-05-26T06:17:25.303Z,92532.48
2018-05-26T06:23:08.281Z,92519.06
2018-05-26T06:25:40.644Z,92523.59
2018-05-26T06:28:13.238Z,92529.59
2018-05-26T06:30:45.665Z,92523.45
2018-05-26T06:33:18.282Z,92521.02
2018-05-26T06:35:50.951Z,92525.00
2018-05-26T06:38:24.657Z,92522.23
2018-05-26T06:40:57.210Z,92527.44
2018-05-26T06:43:29.742Z,92519.47
2018-05-26T06:46:02.044Z,92510.02
2018-05-26T06:48:34.510Z,92519.67
2018-05-26T06:51:06.979Z,92516.77
2018-05-26T06:53:39.445Z,92517.45
2018-05-26T06:56:11.879Z,92509.66
2018-05-26T06:58:44.522Z,92516.34
2018-05-26T07:01:16.908Z,92516.50
2018-05-26T07:03:49.328Z,92521.64
2018-05-26T07:06:21.816Z,92516.00
2018-05-26T07:08:54.439Z,92512.14
2018-05-26T07:11:26.792Z,92509.37
2018-05-26T07:13:59.082Z,92505.38
2018-05-26T07:16:31.550Z,92512.95
2018-05-26T07:19:03.998Z,92511.97
2018-05-26T07:21:36.295Z,92523.64
2018-05-26T07:24:08.707Z,92517.87
2018-05-26T07:26:40.984Z,92518.28
2018-05-26T07:29:13.320Z,92518.80
2018-05-26T07:31:46.879Z,92518.56
2018-05-26T07:34:19.527Z,92515.47
2018-05-26T07:36:51.975Z,92520.74
2018-05-26T07:39:24.370Z,92520.88
2018-05-26T07:41:56.649Z,92524.33
2018-05-26T07:44:28.983Z,92517.97
2018-05-26T07:47:01.407Z,92521.88
2018-05-26T07:49:33.828Z,92524.75
2018-05-26T07:52:06.301Z,92524.24
2018-05-26T07:54:38.649Z,92524.80
2018-05-26T07:57:11.087Z,92520.00
2018-05-26T07:59:43.548Z,92508.29
2018-05-26T08:02:16.026Z,92519.59
2018-05-26T08:04:48.691Z,92518.76
2018-05-26T08:07:20.972Z,92522.20
2018-05-26T08:09:53.286Z,92523.23
2018-05-26T08:12:25.744Z,92522.33
2018-05-26T08:14:58.232Z,92530.27
2018-05-26T08:17:30.619Z,92523.92
2018-05-26T08:20:03.262Z,92527.14
2018-05-26T08:22:35.616Z,92531.89
2018-05-26T08:25:08.158Z,92525.97
2018-05-26T08:27:40.527Z,92532.58
2018-05-26T08:30:12.918Z,92530.17
2018-05-26T08:32:45.387Z,92532.02
2018-05-26T08:35:17.986Z,92524.24
2018-05-26T08:37:50.483Z,92523.41
2018-05-26T08:40:22.849Z,92536.91
2018-05-26T08:42:55.240Z,92531.13
2018-05-26T08:45:27.618Z,92522.22
2018-05-26T08:48:00.122Z,92521.87
2018-05-26T08:50:32.535Z,92524.55
2018-05-26T08:53:04.986Z,92519.52
2018-05-26T08:55:37.270Z,92525.80
2018-05-26T08:58:09.665Z,92525.89
2018-05-26T09:00:42.064Z,92525.58
2018-05-26T09:03:14.492Z,92528.78
2018-05-26T09:05:47.564Z,92516.61
2018-05-26T09:08:20.077Z,92526.87
2018-05-26T09:10:52.439Z,92520.73
2018-05-26T09:13:24.891Z,92520.91
2018-05-26T09:15:57.466Z,92525.09
2018-05-26T09:18:29.715Z,92513.77
2018-05-26T09:21:02.288Z,92512.47
2018-05-26T09:23:34.769Z,92509.02
2018-05-26T09:26:07.163Z,92511.11
2018-05-26T09:28:39.669Z,92508.94
2018-05-26T09:31:12.160Z,92503.33
2018-05-26T09:33:44.695Z,92499.09
2018-05-26T09:36:17.302Z,92495.01
2018-05-26T09:38:49.719Z,92485.84
2018-05-26T09:41:22.256Z,92487.00
2018-05-26T09:43:54.488Z,92492.74
2018-05-26T09:46:27.011Z,92478.78
2018-05-26T09:48:59.358Z,92474.31
2018-05-26T09:51:31.725Z,92472.27
2018-05-26T09:54:04.223Z,92467.88
2018-05-26T09:56:36.634Z,92465.64
2018-05-26T09:59:08.867Z,92476.22
2018-05-26T10:01:41.240Z,92471.60
2018-05-26T10:04:13.717Z,92475.34
2018-05-26T10:06:46.268Z,92470.27
2018-05-26T10:09:24.398Z,92472.14
2018-05-26T10:11:56.918Z,92474.22
2018-05-26T10:14:29.248Z,92469.65
2018-05-26T10:17:01.633Z,92465.04
2018-05-26T10:19:34.081Z,92475.91
2018-05-26T10:22:06.607Z,92477.38
2018-05-26T10:24:39.062Z,92472.83
2018-05-26T10:27:11.662Z,92465.55
2018-05-26T10:29:44.032Z,92465.36
2018-05-26T10:32:16.534Z,92462.42
2018-05-26T10:34:49.140Z,92451.30
2018-05-26T10:37:21.577Z,92447.29
2018-05-26T10:39:54.028Z,92451.02
2018-05-26T10:42:26.378Z,92451.80
2018-05-26T10:44:58.698Z,92457.34
2018-05-26T10:47:34.663Z,92452.11
2018-05-26T10:50:07.092Z,92448.05
2018-05-26T10:52:39.505Z,92452.19
2018-05-26T10:55:11.880Z,92457.44
2018-05-26T10:57:44.239Z,92462.81
2018-05-26T11:00:16.782Z,92459.85
2018-05-26T11:02:49.288Z,92462.59
2018-05-26T11:05:21.813Z,92455.70
2018-05-26T11:07:54.491Z,92459.42
2018-05-26T11:10:26.834Z,92459.30
2018-05-26T11:12:59.258Z,92465.28
2018-05-26T11:15:31.727Z,92469.23
2018-05-26T11:18:04.091Z,92469.31
2018-05-26T11:20:36.508Z,92472.76
2018-05-26T11:23:09.801Z,92466.02
2018-05-26T11:25:42.266Z,92461.02
2018-05-26T11:28:14.794Z,92457.59
2018-05-26T11:30:47.228Z,92464.62
2018-05-26T11:33:19.606Z,92463.36
2018-05-26T11:35:52.166Z,92465.95
2018-05-26T11:38:24.610Z,92472.25
2018-05-26T11:40:56.930Z,92469.31
2018-05-26T11:43:29.481Z,92464.66
2018-05-26T11:46:01.804Z,92464.47
2018-05-26T11:48:34.303Z,92463.73
2018-05-26T11:51:06.753Z,92461.30
2018-05-26T11:53:39.204Z,92462.84
2018-05-26T11:56:11.628Z,92458.16
2018-05-26T11:58:44.148Z,92457.20
2018-05-26T12:01:16.410Z,92456.82
2018-05-26T12:03:48.792Z,92457.96
2018-05-26T12:06:21.909Z,92452.42
2018-05-26T12:08:54.264Z,92445.52
2018-05-26T12:11:26.806Z,92442.48
2018-05-26T12:13:59.142Z,92442.39
2018-05-26T12:16:31.524Z,92445.69
2018-05-26T12:19:03.880Z,92443.13
2018-05-26T12:21:36.150Z,92441.19
2018-05-26T12:24:08.649Z,92445.68
2018-05-26T12:26:41.003Z,92452.59
2018-05-26T12:29:13.459Z,92449.31
2018-05-26T12:31:45.854Z,92448.92
2018-05-26T12:34:18.408Z,92449.41
2018-05-26T12:36:51.065Z,92439.80
2018-05-26T12:39:23.539Z,92442.59
2018-05-26T12:41:56.024Z,92443.65
2018-05-26T12:44:28.383Z,92450.46
2018-05-26T12:47:00.925Z,92444.03
2018-05-26T12:49:33.281Z,92432.63
2018-05-26T12:52:05.814Z,92438.28
2018-05-26T12:54:38.331Z,92437.95
2018-05-26T12:57:10.769Z,92433.26
2018-05-26T12:59:43.358Z,92431.84
2018-05-26T13:02:15.600Z,92435.35
2018-05-26T13:04:47.935Z,92447.26
2018-05-26T13:07:20.396Z,92454.27
2018-05-26T13:09:52.965Z,92455.13
2018-05-26T13:12:25.441Z,92458.75
2018-05-26T13:14:57.936Z,92451.20
2018-05-26T13:17:30.197Z,92454.02
2018-05-26T13:20:02.760Z,92452.48
2018-05-26T13:22:35.182Z,92465.48
2018-05-26T13:25:07.767Z,92463.03
2018-05-26T13:27:40.230Z,92464.22
2018-05-26T13:30:12.640Z,92464.19
2018-05-26T13:32:45.158Z,92454.45
2018-05-26T13:35:17.500Z,92452.69
2018-05-26T13:37:50.450Z,92453.02
2018-05-26T13:40:22.899Z,92441.81
2018-05-26T13:42:55.422Z,92446.52
2018-05-26T13:45:27.831Z,92445.43
2018-05-26T13:48:00.298Z,92442.63
2018-05-26T13:50:32.670Z,92433.14
2018-05-26T13:53:05.188Z,92431.48
2018-05-26T13:55:38.032Z,92435.66
2018-05-26T13:58:10.598Z,92434.07
2018-05-26T14:00:43.075Z,92427.76
2018-05-26T14:03:15.506Z,92435.53
2018-05-26T14:05:47.897Z,92436.31
2018-05-26T14:08:20.409Z,92436.95
2018-05-26T14:10:52.895Z,92444.58
2018-05-26T14:13:25.394Z,92438.45
2018-05-26T14:15:57.710Z,92451.64
2018-05-26T14:18:30.196Z,92445.44
2018-05-26T14:21:02.663Z,92446.28
2018-05-26T14:23:35.081Z,92448.88
2018-05-26T14:26:07.757Z,92456.99
2018-05-26T14:28:40.151Z,92448.24
2018-05-26T14:31:12.804Z,92447.11
2018-05-26T14:33:45.409Z,92438.02
2018-05-26T14:36:18.510Z,92440.21
2018-05-26T14:38:50.904Z,92443.25
2018-05-26T14:41:23.454Z,92435.79
2018-05-26T14:43:55.906Z,92437.71
2018-05-26T14:46:28.255Z,92427.05
2018-05-26T14:49:00.574Z,92427.70
2018-05-26T14:51:33.134Z,92418.88
2018-05-26T14:54:05.550Z,92413.31
2018-05-26T14:56:38.188Z,92410.08
2018-05-26T14:59:10.675Z,92405.22
2018-05-26T15:01:43.210Z,92405.51
2018-05-26T15:04:21.825Z,92403.75
2018-05-26T15:06:54.332Z,92399.80
2018-05-26T15:09:26.696Z,92406.30
2018-05-26T15:11:59.385Z,92398.89
2018-05-26T15:14:31.822Z,92391.80
2018-05-26T15:17:04.328Z,92396.95
2018-05-26T15:19:36.829Z,92396.14
2018-05-26T15:22:09.224Z,92392.33
2018-05-26T15:24:41.906Z,92392.07
2018-05-26T15:27:14.302Z,92390.62
2018-05-26T15:29:46.649Z,92391.99
2018-05-26T15:32:18.966Z,92384.12
2018-05-26T15:34:51.371Z,92395.28
2018-05-26T15:37:23.794Z,92385.34
2018-05-26T15:39:56.387Z,92386.46
2018-05-26T15:42:29.145Z,92398.84
2018-05-26T15:45:01.561Z,92402.72
2018-05-26T15:47:34.034Z,92407.59
2018-05-26T15:50:06.499Z,92404.32
2018-05-26T15:52:39.020Z,92410.43
2018-05-26T15:55:11.491Z,92414.14
2018-05-26T15:57:44.950Z,92418.28
2018-05-26T16:00:18.469Z,92425.64
2018-05-26T16:02:51.808Z,92431.87
2018-05-26T16:05:24.131Z,92431.44
2018-05-26T16:07:56.695Z,92438.90
2018-05-26T16:10:29.409Z,92436.16
2018-05-26T16:13:02.891Z,92437.22
2018-05-26T16:15:35.362Z,92442.06
2018-05-26T16:18:07.749Z,92436.06
2018-05-26T16:20:40.219Z,92439.23
2018-05-26T16:23:12.889Z,92441.72
2018-05-26T16:25:45.122Z,92447.57
2018-05-26T16:28:17.524Z,92451.88
2018-05-26T16:30:50.505Z,92460.27
2018-05-26T16:33:23.085Z,92453.56
2018-05-26T16:35:55.480Z,92460.04
2018-05-26T16:38:28.065Z,92456.66
2018-05-26T16:41:00.684Z,92459.16
2018-05-26T16:43:33.054Z,92465.69
2018-05-26T16:46:05.389Z,92464.65
2018-05-26T16:48:37.947Z,92464.76
2018-05-26T16:51:10.682Z,92463.19
2018-05-26T16:53:43.318Z,92468.34
2018-05-26T16:56:16.659Z,92470.78
2018-05-26T16:58:49.445Z,92481.70
2018-05-26T17:01:21.816Z,92488.17
2018-05-26T17:03:54.217Z,92485.67
2018-05-26T17:06:26.561Z,92480.13
2018-05-26T17:08:59.183Z,92483.13
2018-05-26T17:11:31.616Z,92488.84
2018-05-26T17:14:04.267Z,92492.23
2018-05-26T17:16:36.548Z,92495.70
2018-05-26T17:19:09.110Z,92495.12
2018-05-26T17:21:41.557Z,92497.95
2018-05-26T17:24:14.107Z,92493.64
2018-05-26T17:26:46.531Z,92498.98
2018-05-26T17:29:19.070Z,92498.80
2018-05-26T17:31:51.705Z,92498.72
2018-05-26T17:34:24.318Z,92498.97
2018-05-26T17:36:56.616Z,92496.41
2018-05-26T17:39:29.142Z,92501.20
2018-05-26T17:42:01.761Z,92501.78
2018-05-26T17:44:34.320Z,92497.98
2018-05-26T17:47:06.664Z,92499.41
2018-05-26T17:49:39.149Z,92485.63
2018-05-26T17:52:11.599Z,92486.77
2018-05-26T17:54:44.148Z,92490.34
2018-05-26T17:57:16.628Z,92486.64
2018-05-26T17:59:49.166Z,92480.76
2018-05-26T18:02:21.590Z,92485.83
2018-05-26T18:04:53.944Z,92480.17
2018-05-26T18:07:26.211Z,92480.72
2018-05-26T18:09:58.580Z,92488.17
2018-05-26T18:12:30.992Z,92493.42
2018-05-26T18:15:03.612Z,92498.19
2018-05-26T18:17:36.027Z,92504.14
2018-05-26T18:20:08.367Z,92504.33
2018-05-26T18:22:40.915Z,92506.16
2018-05-26T18:25:13.850Z,92502.84
2018-05-26T18:27:47.689Z,92511.81
2018-05-26T18:30:20.195Z,92511.67
2018-05-26T18:32:52.829Z,92519.33
2018-05-26T18:35:25.219Z,92510.89
2018-05-26T18:37:57.913Z,92518.24
2018-05-26T18:40:30.240Z,92525.99
2018-05-26T18:43:02.826Z,92535.18
2018-05-26T18:45:35.609Z,92540.05
2018-05-26T18:48:07.947Z,92538.38
2018-05-26T18:50:40.559Z,92548.11
2018-05-26T18:53:13.457Z,92545.76
2018-05-26T18:55:46.047Z,92552.39
2018-05-26T18:58:18.610Z,92553.58
2018-05-26T19:00:51.147Z,92550.41
2018-05-26T19:03:23.608Z,92556.56
2018-05-26T19:05:55.992Z,92560.22
2018-05-26T19:08:28.468Z,92561.00
2018-05-26T19:11:00.860Z,92573.28
2018-05-26T19:57:19.812Z,92610.41
2018-05-26T19:59:52.274Z,92616.06
2018-05-26T20:02:24.780Z,92620.12
2018-05-26T20:05:01.503Z,92622.23
2018-05-26T20:07:34.999Z,92621.20
2018-05-26T20:10:15.509Z,92622.91
2018-05-26T20:12:53.383Z,92628.02
2018-05-26T20:15:30.794Z,92628.04
2018-05-26T20:18:03.379Z,92629.30
2018-05-26T20:20:37.639Z,92623.23
2018-05-26T20:23:10.583Z,92634.18
2018-05-26T20:25:43.072Z,92635.47
2018-05-26T20:28:24.374Z,92638.59
2018-05-26T20:30:57.013Z,92632.53
2018-05-26T20:33:29.713Z,92634.98
2018-05-26T20:36:02.075Z,92639.25
2018-05-26T20:41:13.558Z,92630.56
2018-05-26T20:43:46.048Z,92631.80
2018-05-26T20:46:18.343Z,92631.66
2018-05-26T20:48:50.967Z,92624.97
2018-05-26T20:51:28.824Z,92627.62
2018-05-26T20:54:01.283Z,92622.79
2018-05-26T20:56:33.779Z,92623.72
2018-05-26T20:59:06.770Z,92624.78
2018-05-26T21:01:40.586Z,92625.82
2018-05-26T21:04:13.047Z,92630.76
2018-05-26T21:06:45.608Z,92631.03
2018-05-26T21:09:18.139Z,92626.17
2018-05-26T21:11:50.592Z,92624.11
2018-05-26T21:14:23.392Z,92620.38
2018-05-26T21:16:55.784Z,92632.67
2018-05-26T21:19:28.282Z,92627.23
2018-05-26T21:22:00.817Z,92625.85
2018-05-26T21:24:33.189Z,92629.27
2018-05-26T21:27:05.607Z,92630.69
2018-05-26T21:29:38.120Z,92631.95
2018-05-26T21:32:10.634Z,92623.84
2018-05-26T21:34:43.078Z,92628.84
2018-05-26T21:37:15.545Z,92625.41
2018-05-26T21:39:47.879Z,92616.66
2018-05-26T21:42:20.297Z,92621.34
2018-05-26T21:44:53.085Z,92625.84
2018-05-26T21:47:25.552Z,92616.21
2018-05-26T21:49:57.834Z,92624.38
2018-05-26T21:52:30.323Z,92620.53
2018-05-26T21:55:02.850Z,92617.73
2018-05-26T21:57:35.189Z,92612.83
2018-05-26T22:00:07.954Z,92609.77
2018-05-26T22:02:40.279Z,92602.67
2018-05-26T22:05:12.779Z,92594.63
2018-05-26T22:07:45.056Z,92590.72
2018-05-26T22:10:17.584Z,92596.97
2018-05-26T22:12:49.859Z,92591.58
2018-05-26T22:15:22.516Z,92586.19
2018-05-26T22:17:54.948Z,92579.50
2018-05-26T22:20:27.319Z,92588.38
2018-05-26T22:22:59.731Z,92592.65
2018-05-26T22:25:32.251Z,92583.05
2018-05-26T22:28:04.606Z,92588.31
2018-05-26T22:30:37.098Z,92603.80
2018-05-26T22:33:09.514Z,92609.30
2018-05-26T22:35:42.029Z,92613.14
2018-05-26T22:38:14.459Z,92620.52
2018-05-26T22:40:46.797Z,92621.44
2018-05-26T22:43:19.363Z,92619.59
2018-05-26T22:45:51.985Z,92615.75
2018-05-26T22:48:24.445Z,92615.31
2018-05-26T22:50:56.819Z,92631.11
2018-05-26T22:53:29.154Z,92628.20
2018-05-26T22:56:01.586Z,92631.20
2018-05-26T22:58:33.975Z,92627.93
2018-05-26T23:01:06.783Z,92626.74
2018-05-26T23:03:39.317Z,92632.64
2018-05-26T23:06:11.646Z,92623.83
2018-05-26T23:08:44.103Z,92627.53
2018-05-26T23:11:16.496Z,92631.56
2018-05-26T23:13:48.950Z,92623.28
2018-05-26T23:16:21.639Z,92623.43
2018-05-26T23:18:53.989Z,92626.20
2018-05-26T23:21:26.355Z,92622.95
2018-05-26T23:23:58.709Z,92624.48
2018-05-26T23:26:31.219Z,92615.39
2018-05-26T23:29:03.535Z,92616.17
2018-05-26T23:31:36.148Z,92606.50
2018-05-26T23:34:08.457Z,92603.64
2018-05-26T23:36:40.807Z,92596.89
2018-05-26T23:39:13.219Z,92597.58
2018-05-26T23:41:45.795Z,92594.14
2018-05-26T23:44:18.234Z,92594.45
2018-05-26T23:46:51.674Z,92598.95
2018-05-26T23:49:24.146Z,92598.91
2018-05-26T23:51:56.501Z,92594.70
2018-05-26T23:54:28.992Z,92600.02
2018-05-26T23:57:01.521Z,92599.42
2018-05-26T23:59:34.033Z,92599.48
